createdAt,value
2022-12-12T00:00:50.689Z,-0.20
2022-12-12T00:02:01.110Z,-0.20
2022-12-12T00:03:08.319Z,0.00
2022-12-12T00:04:11.797Z,2.40
2022-12-12T00:05:16.737Z,1.00
2022-12-12T00:06:23.975Z,-0.30
2022-12-12T00:07:27.413Z,-0.30
2022-12-12T00:08:37.947Z,-0.10
2022-12-12T00:09:46.783Z,0.60
2022-12-12T00:11:00.035Z,-0.50
2022-12-12T00:12:07.188Z,-0.30
2022-12-12T00:13:10.037Z,-0.50
2022-12-12T00:14:14.340Z,-0.50
2022-12-12T00:15:29.371Z,-0.40
2022-12-12T00:16:33.639Z,-0.30
2022-12-12T00:17:39.418Z,-0.20
2022-12-12T00:18:47.975Z,1.30
2022-12-12T00:19:52.928Z,-0.20
2022-12-12T00:21:23.202Z,-0.20
2022-12-12T00:22:25.828Z,-0.20
2022-12-12T00:23:29.666Z,-0.20
2022-12-12T00:24:32.065Z,-0.20
2022-12-12T00:25:39.168Z,-0.20
2022-12-12T00:26:41.844Z,0.70
2022-12-12T00:27:49.682Z,-0.20
2022-12-12T00:29:01.673Z,-0.20
2022-12-12T00:30:09.182Z,-0.20
2022-12-12T00:31:12.040Z,-0.20
2022-12-12T00:32:24.292Z,0.60
2022-12-12T00:33:29.501Z,1.90
2022-12-12T00:34:33.067Z,0.50
2022-12-12T00:35:35.635Z,-0.20
2022-12-12T00:36:39.485Z,0.70
2022-12-12T00:37:47.988Z,1.60
2022-12-12T00:38:52.099Z,-0.20
2022-12-12T00:39:55.789Z,-0.30
2022-12-12T00:41:00.109Z,0.40
2022-12-12T00:42:03.818Z,-0.10
2022-12-12T00:43:07.630Z,-0.20
2022-12-12T00:44:12.345Z,0.60
2022-12-12T00:45:15.023Z,1.20
2022-12-12T00:46:24.779Z,-0.30
2022-12-12T00:47:30.410Z,-2.00
2022-12-12T00:48:34.348Z,-0.20
2022-12-12T00:49:37.163Z,-0.10
2022-12-12T00:50:40.537Z,-0.20
2022-12-12T00:51:50.228Z,-0.20
2022-12-12T00:52:53.700Z,-0.20
2022-12-12T00:53:56.758Z,1.50
2022-12-12T00:55:00.729Z,0.60
2022-12-12T00:56:04.520Z,-0.20
2022-12-12T00:57:08.122Z,1.00
2022-12-12T00:58:13.274Z,-0.30
2022-12-12T00:59:22.932Z,-0.20
2022-12-12T01:00:49.772Z,-0.20
2022-12-12T01:01:52.299Z,-0.10
2022-12-12T01:03:01.888Z,-0.20
2022-12-12T01:04:05.852Z,-0.30
2022-12-12T01:05:09.581Z,2.20
2022-12-12T01:06:14.611Z,-0.30
2022-12-12T01:07:18.152Z,-0.20
2022-12-12T01:08:20.544Z,-0.30
2022-12-12T01:09:23.835Z,1.70
2022-12-12T01:10:26.249Z,-0.40
2022-12-12T01:11:30.464Z,-0.30
2022-12-12T01:12:33.335Z,-0.30
2022-12-12T01:13:38.389Z,1.10
2022-12-12T01:14:40.995Z,-0.40
2022-12-12T01:15:44.627Z,1.30
2022-12-12T01:16:47.561Z,-0.30
2022-12-12T01:17:51.081Z,2.40
2022-12-12T01:18:53.751Z,1.40
2022-12-12T01:19:57.449Z,-0.20
2022-12-12T01:21:05.564Z,-0.30
2022-12-12T01:22:10.215Z,-0.40
2022-12-12T01:23:15.995Z,-0.30
2022-12-12T01:24:19.485Z,-0.40
2022-12-12T01:25:23.348Z,-0.40
2022-12-12T01:26:27.331Z,0.80
2022-12-12T01:27:29.738Z,0.20
2022-12-12T01:28:33.063Z,-0.40
2022-12-12T01:29:37.440Z,-0.40
2022-12-12T01:30:40.880Z,-0.30
2022-12-12T01:31:47.005Z,-0.30
2022-12-12T01:32:53.299Z,2.10
2022-12-12T01:34:06.903Z,0.70
2022-12-12T01:35:15.102Z,-0.30
2022-12-12T01:36:22.571Z,-0.30
2022-12-12T01:37:25.238Z,-0.10
2022-12-12T01:38:29.655Z,-0.20
2022-12-12T01:39:31.911Z,0.60
2022-12-12T01:40:35.776Z,-0.20
2022-12-12T01:41:38.624Z,-0.20
2022-12-12T01:42:42.031Z,-0.10
2022-12-12T01:43:47.627Z,-0.20
2022-12-12T01:44:54.478Z,-0.30
2022-12-12T01:46:38.947Z,-0.30
2022-12-12T01:47:42.510Z,-0.30
2022-12-12T01:48:52.892Z,-0.20
2022-12-12T01:50:00.760Z,0.50
2022-12-12T01:51:12.134Z,-0.20
2022-12-12T01:52:24.396Z,-0.20
2022-12-12T01:53:35.171Z,0.40
2022-12-12T01:54:44.943Z,0.10
2022-12-12T01:55:51.912Z,-0.20
2022-12-12T01:57:08.259Z,-0.10
2022-12-12T01:58:18.117Z,-0.30
2022-12-12T01:59:25.105Z,-0.20
2022-12-12T02:00:29.471Z,0.40
2022-12-12T02:01:33.667Z,0.00
2022-12-12T02:02:39.715Z,1.00
2022-12-12T02:03:44.676Z,-0.30
2022-12-12T02:04:51.090Z,-0.20
2022-12-12T02:06:00.021Z,-0.20
2022-12-12T02:07:04.261Z,-0.10
2022-12-12T02:08:08.914Z,-0.20
2022-12-12T02:09:17.037Z,0.50
2022-12-12T02:10:19.910Z,1.00
2022-12-12T02:11:23.801Z,-0.10
2022-12-12T02:12:27.343Z,-0.20
2022-12-12T02:13:35.892Z,-0.10
2022-12-12T02:14:42.767Z,-0.20
2022-12-12T02:16:00.421Z,-0.10
2022-12-12T02:17:30.816Z,-0.20
2022-12-12T02:18:42.381Z,-0.20
2022-12-12T02:20:23.563Z,0.30
2022-12-12T02:21:36.271Z,-0.20
2022-12-12T02:23:18.623Z,-0.20
2022-12-12T02:24:53.177Z,-0.10
2022-12-12T02:26:41.526Z,0.00
2022-12-12T02:28:24.949Z,0.00
2022-12-12T02:30:10.777Z,-0.10
2022-12-12T02:31:39.577Z,-0.10
2022-12-12T02:33:11.021Z,2.00
2022-12-12T02:34:36.978Z,-0.20
2022-12-12T02:35:59.209Z,-0.20
2022-12-12T02:37:18.088Z,-0.30
2022-12-12T02:38:31.471Z,1.70
2022-12-12T02:39:47.069Z,-1.10
2022-12-12T02:41:17.256Z,0.50
2022-12-12T02:42:40.519Z,-0.20
2022-12-12T02:45:23.832Z,-0.60
2022-12-12T02:46:52.502Z,-0.10
2022-12-12T02:48:11.483Z,-0.80
2022-12-12T02:49:22.438Z,-0.10
2022-12-12T02:50:28.928Z,2.20
2022-12-12T02:51:35.724Z,-0.10
2022-12-12T02:52:39.041Z,-0.10
2022-12-12T02:53:42.656Z,-0.10
2022-12-12T02:54:50.515Z,-0.10
2022-12-12T02:56:04.784Z,-0.10
2022-12-12T02:57:16.588Z,2.40
2022-12-12T02:58:20.780Z,0.10
2022-12-12T02:59:30.961Z,1.30
2022-12-12T03:00:44.218Z,-0.10
2022-12-12T03:02:05.628Z,-0.10
2022-12-12T03:03:46.920Z,-0.10
2022-12-12T03:05:27.609Z,0.30
2022-12-12T03:07:10.985Z,-0.10
2022-12-12T03:08:35.204Z,-0.10
2022-12-12T03:09:59.366Z,-0.10
2022-12-12T03:11:07.943Z,-0.10
2022-12-12T03:12:18.017Z,-0.10
2022-12-12T03:13:32.349Z,-0.10
2022-12-12T03:14:49.651Z,0.00
2022-12-12T03:16:06.716Z,-0.10
2022-12-12T03:17:17.665Z,-0.20
2022-12-12T03:18:29.434Z,-0.20
2022-12-12T03:19:44.556Z,1.70
2022-12-12T03:20:53.762Z,-0.20
2022-12-12T03:22:05.217Z,1.50
2022-12-12T03:23:21.845Z,1.40
2022-12-12T03:24:35.881Z,-0.10
2022-12-12T03:25:48.781Z,-0.10
2022-12-12T03:26:59.131Z,-0.10
2022-12-12T03:28:07.087Z,0.50
2022-12-12T03:29:14.571Z,-0.20
2022-12-12T03:31:04.593Z,0.30
2022-12-12T03:32:14.481Z,-0.40
2022-12-12T03:33:27.431Z,-0.50
2022-12-12T03:34:36.416Z,-0.20
2022-12-12T03:35:45.435Z,-0.50
2022-12-12T03:36:55.910Z,-0.40
2022-12-12T03:38:07.327Z,-0.10
2022-12-12T03:39:18.303Z,-0.50
2022-12-12T03:40:31.057Z,1.20
2022-12-12T03:41:41.940Z,-0.30
2022-12-12T03:42:51.355Z,-0.30
2022-12-12T03:44:01.984Z,-0.30
2022-12-12T03:45:12.257Z,-0.30
2022-12-12T03:46:20.980Z,-0.30
2022-12-12T03:47:32.575Z,-0.20
2022-12-12T03:48:40.453Z,-0.30
2022-12-12T03:49:50.788Z,-0.20
2022-12-12T03:50:59.257Z,-0.20
2022-12-12T03:52:08.316Z,-0.20
2022-12-12T03:53:18.587Z,-0.30
2022-12-12T03:54:30.101Z,1.00
2022-12-12T03:55:39.721Z,-0.60
2022-12-12T03:56:50.703Z,-0.10
2022-12-12T03:57:59.836Z,-0.60
2022-12-12T03:59:11.458Z,-0.60
2022-12-12T04:00:16.182Z,-0.50
2022-12-12T04:01:29.049Z,-0.50
2022-12-12T04:02:40.563Z,-0.60
2022-12-12T04:03:55.107Z,-0.50
2022-12-12T04:05:09.384Z,-0.60
2022-12-12T04:06:27.395Z,-0.50
2022-12-12T04:07:37.716Z,-0.50
2022-12-12T04:09:01.486Z,-0.40
2022-12-12T04:10:29.933Z,-0.40
2022-12-12T04:12:00.259Z,-0.50
2022-12-12T04:13:14.341Z,-0.40
2022-12-12T04:14:35.821Z,-0.40
2022-12-12T04:15:57.403Z,-0.40
2022-12-12T04:17:04.004Z,-0.20
2022-12-12T04:18:20.984Z,-0.20
2022-12-12T04:19:53.662Z,-0.30
2022-12-12T04:21:23.772Z,-0.20
2022-12-12T04:22:55.594Z,-0.20
2022-12-12T04:24:10.976Z,-0.20
2022-12-12T04:25:27.169Z,-0.30
2022-12-12T04:26:40.430Z,-0.30
2022-12-12T04:27:51.970Z,-0.40
2022-12-12T04:29:06.117Z,-0.50
2022-12-12T04:30:13.460Z,-0.20
2022-12-12T04:31:23.659Z,-0.20
2022-12-12T04:32:40.843Z,-0.10
2022-12-12T04:33:51.396Z,-0.10
2022-12-12T04:34:59.922Z,-1.10
2022-12-12T04:36:06.598Z,0.00
2022-12-12T04:37:15.931Z,-0.80
2022-12-12T04:38:22.037Z,-0.10
2022-12-12T04:39:28.654Z,-1.60
2022-12-12T04:40:35.577Z,0.60
2022-12-12T04:41:44.398Z,-0.10
2022-12-12T04:42:54.867Z,-0.10
2022-12-12T04:44:03.174Z,-0.10
2022-12-12T04:45:12.686Z,0.00
2022-12-12T04:46:22.057Z,0.00
2022-12-12T04:47:30.703Z,0.00
2022-12-12T04:48:43.677Z,-0.20
2022-12-12T04:49:53.146Z,-0.30
2022-12-12T04:51:01.188Z,0.80
2022-12-12T04:52:08.780Z,-0.20
2022-12-12T04:53:18.667Z,0.00
2022-12-12T04:54:30.773Z,-0.20
2022-12-12T04:55:38.380Z,0.20
2022-12-12T04:56:45.206Z,-0.20
2022-12-12T04:57:51.650Z,-0.20
2022-12-12T04:58:59.589Z,-0.20
2022-12-12T05:00:03.782Z,-0.10
2022-12-12T05:01:13.666Z,-0.10
2022-12-12T05:02:27.456Z,-0.10
2022-12-12T05:03:41.599Z,-0.10
2022-12-12T05:04:56.070Z,-0.10
2022-12-12T05:06:03.848Z,-0.10
2022-12-12T05:07:15.201Z,0.90
2022-12-12T05:08:25.387Z,0.00
2022-12-12T05:09:28.390Z,0.20
2022-12-12T05:10:32.116Z,0.00
2022-12-12T05:11:35.786Z,0.00
2022-12-12T05:12:45.579Z,0.10
2022-12-12T05:13:53.401Z,0.10
2022-12-12T05:14:56.950Z,0.10
2022-12-12T05:16:03.249Z,2.30
2022-12-12T05:17:13.000Z,0.00
2022-12-12T05:18:16.384Z,0.00
2022-12-12T05:19:20.409Z,0.10
2022-12-12T05:20:24.310Z,0.10
2022-12-12T05:21:31.204Z,0.10
2022-12-12T05:22:33.948Z,0.20
2022-12-12T05:23:37.459Z,0.10
2022-12-12T05:24:40.919Z,0.20
2022-12-12T05:25:43.310Z,0.20
2022-12-12T05:26:47.089Z,0.20
2022-12-12T05:27:54.915Z,0.20
2022-12-12T05:29:07.200Z,1.70
2022-12-12T05:30:16.763Z,1.10
2022-12-12T05:31:19.353Z,0.30
2022-12-12T05:32:23.080Z,0.20
2022-12-12T05:33:25.826Z,0.30
2022-12-12T05:34:33.751Z,0.30
2022-12-12T05:35:38.240Z,0.30
2022-12-12T05:36:41.920Z,1.40
2022-12-12T05:37:51.375Z,2.60
2022-12-12T05:38:54.607Z,0.30
2022-12-12T05:39:57.988Z,0.40
2022-12-12T05:41:00.558Z,0.40
2022-12-12T05:42:04.250Z,0.40
2022-12-12T05:43:06.613Z,0.40
2022-12-12T05:44:10.101Z,0.20
2022-12-12T05:45:12.993Z,0.30
2022-12-12T05:46:16.616Z,0.30
2022-12-12T05:47:23.379Z,0.30
2022-12-12T05:48:31.790Z,0.40
2022-12-12T05:49:39.671Z,0.40
2022-12-12T05:50:45.210Z,0.50
2022-12-12T05:51:48.655Z,0.70
2022-12-12T05:52:51.176Z,0.60
2022-12-12T05:53:54.761Z,2.20
2022-12-12T05:54:57.505Z,0.60
2022-12-12T05:56:01.603Z,0.60
2022-12-12T05:57:05.169Z,1.40
2022-12-12T05:58:08.155Z,0.60
2022-12-12T05:59:11.758Z,0.50
2022-12-12T06:00:14.672Z,0.60
2022-12-12T06:01:18.422Z,0.70
2022-12-12T06:02:21.300Z,0.70
2022-12-12T06:03:25.099Z,0.80
2022-12-12T06:04:27.821Z,0.70
2022-12-12T06:05:31.356Z,0.80
2022-12-12T06:06:35.648Z,0.80
2022-12-12T06:07:40.800Z,1.00
2022-12-12T06:08:46.844Z,0.80
2022-12-12T06:09:57.719Z,0.80
2022-12-12T06:11:00.163Z,0.90
2022-12-12T06:12:08.074Z,0.80
2022-12-12T06:13:10.691Z,0.80
2022-12-12T06:14:14.215Z,2.20
2022-12-12T06:15:17.429Z,0.70
2022-12-12T06:16:21.647Z,0.30
2022-12-12T06:17:27.180Z,0.70
2022-12-12T06:18:36.928Z,1.10
2022-12-12T06:19:40.464Z,0.70
2022-12-12T06:20:44.155Z,2.00
2022-12-12T06:21:48.088Z,0.70
2022-12-12T06:22:53.799Z,0.60
2022-12-12T06:23:57.689Z,0.60
2022-12-12T06:25:00.023Z,0.60
2022-12-12T06:26:04.261Z,1.40
2022-12-12T06:27:07.795Z,0.70
2022-12-12T06:28:10.715Z,0.80
2022-12-12T06:29:15.246Z,0.70
2022-12-12T06:30:18.340Z,0.80
2022-12-12T06:31:21.836Z,0.80
2022-12-12T06:32:24.249Z,-1.70
2022-12-12T06:33:28.277Z,0.90
2022-12-12T06:34:30.877Z,0.80
2022-12-12T06:35:34.641Z,3.00
2022-12-12T06:36:39.262Z,0.70
2022-12-12T06:37:43.048Z,0.80
2022-12-12T06:38:46.878Z,0.80
2022-12-12T06:39:50.613Z,1.60
2022-12-12T06:40:53.435Z,0.80
2022-12-12T06:41:57.419Z,1.30
2022-12-12T06:42:59.949Z,0.80
2022-12-12T06:44:03.275Z,-0.70
2022-12-12T06:45:07.880Z,1.20
2022-12-12T06:46:14.898Z,0.70
2022-12-12T06:47:18.597Z,1.20
2022-12-12T06:48:22.003Z,0.70
2022-12-12T06:49:25.036Z,-1.10
2022-12-12T06:50:28.672Z,0.70
2022-12-12T06:51:33.652Z,0.70
2022-12-12T06:52:37.330Z,0.60
2022-12-12T06:53:41.119Z,1.60
2022-12-12T06:54:46.733Z,0.80
2022-12-12T06:55:49.340Z,-1.30
2022-12-12T06:56:52.889Z,0.80
2022-12-12T06:57:56.371Z,0.90
2022-12-12T06:59:01.310Z,1.00
2022-12-12T07:00:05.872Z,2.10
2022-12-12T07:01:09.209Z,1.00
2022-12-12T07:02:13.341Z,1.20
2022-12-12T07:03:18.591Z,1.10
2022-12-12T07:04:22.102Z,1.20
2022-12-12T07:05:25.433Z,3.40
2022-12-12T07:06:29.743Z,1.10
2022-12-12T07:07:33.581Z,0.90
2022-12-12T07:08:36.975Z,0.90
2022-12-12T07:09:42.326Z,0.90
2022-12-12T07:10:45.959Z,1.00
2022-12-12T07:11:49.490Z,1.10
2022-12-12T07:12:57.211Z,1.10
2022-12-12T07:14:04.094Z,1.00
2022-12-12T07:15:08.540Z,1.70
2022-12-12T07:16:12.828Z,1.00
2022-12-12T07:17:17.112Z,1.00
2022-12-12T07:18:20.510Z,1.10
2022-12-12T07:19:25.565Z,1.00
2022-12-12T07:20:30.539Z,0.20
2022-12-12T07:21:34.267Z,2.20
2022-12-12T07:22:38.058Z,1.10
2022-12-12T07:23:40.775Z,1.20
2022-12-12T07:24:46.172Z,1.20
2022-12-12T07:25:48.891Z,1.30
2022-12-12T07:26:52.649Z,1.40
2022-12-12T07:27:56.210Z,1.70
2022-12-12T07:28:58.812Z,1.40
2022-12-12T07:30:02.835Z,1.80
2022-12-12T07:31:07.458Z,1.40
2022-12-12T07:32:10.920Z,1.40
2022-12-12T07:33:15.037Z,1.30
2022-12-12T07:34:18.516Z,1.40
2022-12-12T07:35:21.236Z,1.40
2022-12-12T07:36:24.998Z,1.40
2022-12-12T07:37:28.529Z,1.40
2022-12-12T07:38:32.115Z,1.80
2022-12-12T07:39:39.207Z,1.30
2022-12-12T07:40:43.224Z,1.30
2022-12-12T07:41:51.688Z,1.30
2022-12-12T07:42:58.052Z,0.40
2022-12-12T07:44:01.651Z,1.20
2022-12-12T07:45:05.498Z,1.20
2022-12-12T07:46:09.085Z,1.20
2022-12-12T07:47:12.595Z,1.10
2022-12-12T07:48:16.624Z,1.20
2022-12-12T07:49:20.309Z,1.20
2022-12-12T07:50:22.834Z,0.80
2022-12-12T07:51:26.548Z,1.80
2022-12-12T07:52:29.443Z,1.90
2022-12-12T07:53:33.478Z,2.00
2022-12-12T07:54:37.117Z,2.00
2022-12-12T07:55:40.701Z,1.90
2022-12-12T07:56:45.895Z,2.00
2022-12-12T07:57:49.149Z,1.90
2022-12-12T07:58:53.765Z,1.90
2022-12-12T07:59:59.031Z,2.40
2022-12-12T08:01:02.688Z,1.80
2022-12-12T08:02:06.685Z,1.80
2022-12-12T08:03:09.225Z,1.60
2022-12-12T08:04:12.548Z,1.70
2022-12-12T08:05:15.823Z,3.60
2022-12-12T08:06:20.791Z,1.70
2022-12-12T08:07:24.477Z,1.70
2022-12-12T08:08:27.134Z,1.70
2022-12-12T08:09:30.541Z,1.70
2022-12-12T08:10:33.107Z,1.70
2022-12-12T08:11:37.575Z,1.70
2022-12-12T08:12:44.964Z,1.70
2022-12-12T08:13:47.637Z,4.30
2022-12-12T08:14:51.286Z,2.10
2022-12-12T08:15:53.825Z,1.90
2022-12-12T08:16:59.861Z,1.90
2022-12-12T08:18:03.501Z,1.80
2022-12-12T08:19:09.416Z,1.80
2022-12-12T08:20:13.485Z,1.70
2022-12-12T08:21:25.187Z,1.70
2022-12-12T08:22:29.432Z,1.70
2022-12-12T08:23:33.114Z,1.70
2022-12-12T08:24:36.596Z,1.80
2022-12-12T08:25:38.911Z,1.70
2022-12-12T08:26:43.277Z,1.60
2022-12-12T08:27:47.476Z,1.70
2022-12-12T08:28:51.217Z,1.60
2022-12-12T08:29:54.930Z,1.70
2022-12-12T08:30:58.805Z,1.70
2022-12-12T08:32:05.736Z,1.70
2022-12-12T08:33:09.217Z,1.70
2022-12-12T08:34:13.160Z,1.70
2022-12-12T08:35:16.852Z,4.20
2022-12-12T08:36:23.185Z,1.70
2022-12-12T08:37:27.447Z,1.70
2022-12-12T08:38:30.863Z,4.60
2022-12-12T08:39:33.651Z,1.70
2022-12-12T08:40:37.837Z,1.80
2022-12-12T08:41:44.190Z,1.80
2022-12-12T08:42:49.200Z,1.80
2022-12-12T08:43:52.988Z,1.90
2022-12-12T08:44:56.265Z,1.70
2022-12-12T08:46:01.808Z,-0.60
2022-12-12T08:47:05.601Z,1.80
2022-12-12T08:48:08.716Z,1.80
2022-12-12T08:49:12.595Z,1.80
2022-12-12T08:50:16.309Z,1.80
2022-12-12T08:51:20.901Z,1.80
2022-12-12T08:52:24.491Z,1.90
2022-12-12T08:53:29.314Z,1.90
2022-12-12T08:54:32.907Z,2.40
2022-12-12T08:55:39.789Z,2.00
2022-12-12T08:56:44.999Z,1.90
2022-12-12T08:57:50.010Z,2.40
2022-12-12T08:58:53.925Z,2.10
2022-12-12T08:59:57.785Z,2.10
2022-12-12T09:01:01.441Z,2.20
2022-12-12T09:02:05.879Z,2.30
2022-12-12T09:03:08.624Z,3.30
2022-12-12T09:04:12.559Z,3.00
2022-12-12T09:05:16.239Z,2.30
2022-12-12T09:06:20.992Z,-0.40
2022-12-12T09:07:24.402Z,2.30
2022-12-12T09:08:27.932Z,2.10
2022-12-12T09:09:31.584Z,2.20
2022-12-12T09:10:35.235Z,2.10
2022-12-12T09:11:38.714Z,2.00
2022-12-12T09:12:42.352Z,2.20
2022-12-12T09:13:50.200Z,2.20
2022-12-12T09:14:54.139Z,2.30
2022-12-12T09:15:56.664Z,2.30
2022-12-12T09:17:00.305Z,2.40
2022-12-12T09:18:03.255Z,2.40
2022-12-12T09:19:07.049Z,2.70
2022-12-12T09:20:11.779Z,1.10
2022-12-12T09:21:15.334Z,2.40
2022-12-12T09:22:19.622Z,2.40
2022-12-12T09:23:24.523Z,3.30
2022-12-12T09:24:28.736Z,2.40
2022-12-12T09:25:32.715Z,2.30
2022-12-12T09:26:37.402Z,0.10
2022-12-12T09:27:41.030Z,2.30
2022-12-12T09:28:45.567Z,2.40
2022-12-12T09:29:50.479Z,2.90
2022-12-12T09:30:56.819Z,2.30
2022-12-12T09:32:06.534Z,2.30
2022-12-12T09:33:10.490Z,2.40
2022-12-12T09:34:14.473Z,2.10
2022-12-12T09:35:18.541Z,2.10
2022-12-12T09:36:23.175Z,2.10
2022-12-12T09:37:27.075Z,2.70
2022-12-12T09:38:40.066Z,2.10
2022-12-12T09:39:45.162Z,2.10
2022-12-12T09:40:56.362Z,2.20
2022-12-12T09:42:11.745Z,2.20
2022-12-12T09:43:27.718Z,4.70
2022-12-12T09:44:40.397Z,2.50
2022-12-12T09:45:51.032Z,3.70
2022-12-12T09:47:03.364Z,1.20
2022-12-12T09:48:12.483Z,2.30
2022-12-12T09:49:32.442Z,2.30
2022-12-12T09:50:39.460Z,2.20
2022-12-12T09:51:49.811Z,2.10
2022-12-12T09:52:58.312Z,-0.40
2022-12-12T09:54:02.057Z,2.20
2022-12-12T09:55:37.080Z,2.20
2022-12-12T09:56:58.595Z,2.20
2022-12-12T09:58:21.813Z,3.00
2022-12-12T09:59:40.561Z,2.30
2022-12-12T10:00:59.323Z,2.30
2022-12-12T10:02:49.124Z,2.40
2022-12-12T10:04:17.955Z,2.30
2022-12-12T10:05:36.591Z,2.30
2022-12-12T10:06:46.573Z,-1.00
2022-12-12T10:08:03.905Z,2.80
2022-12-12T10:09:31.602Z,2.40
2022-12-12T10:10:41.056Z,2.50
2022-12-12T10:11:52.980Z,2.50
2022-12-12T10:13:00.708Z,2.40
2022-12-12T10:14:08.326Z,2.50
2022-12-12T10:15:31.939Z,2.50
2022-12-12T10:16:54.027Z,2.50
2022-12-12T10:18:12.786Z,2.50
2022-12-12T10:19:30.364Z,2.50
2022-12-12T10:20:40.336Z,3.80
2022-12-12T10:22:00.262Z,2.50
2022-12-12T10:23:20.502Z,1.40
2022-12-12T10:24:36.474Z,1.70
2022-12-12T10:25:54.313Z,2.70
2022-12-12T10:27:00.453Z,2.70
2022-12-12T10:28:14.972Z,2.60
2022-12-12T10:29:38.055Z,3.00
2022-12-12T10:31:06.236Z,2.80
2022-12-12T10:32:29.023Z,2.90
2022-12-12T10:33:48.269Z,2.90
2022-12-12T10:35:21.334Z,6.00
2022-12-12T10:37:05.381Z,3.00
2022-12-12T10:38:31.670Z,3.00
2022-12-12T10:39:55.007Z,3.40
2022-12-12T10:41:12.560Z,3.40
2022-12-12T10:42:25.678Z,2.70
2022-12-12T10:43:40.772Z,2.70
2022-12-12T10:45:10.292Z,3.50
2022-12-12T10:46:29.052Z,0.30
2022-12-12T10:47:35.987Z,2.80
2022-12-12T10:48:40.529Z,3.00
2022-12-12T10:49:45.097Z,2.90
2022-12-12T10:50:54.679Z,2.90
2022-12-12T10:52:01.887Z,2.90
2022-12-12T10:53:08.628Z,3.00
2022-12-12T10:54:19.386Z,3.00
2022-12-12T10:55:31.750Z,3.20
2022-12-12T10:56:35.299Z,3.20
2022-12-12T10:57:37.824Z,3.20
2022-12-12T10:58:43.918Z,3.10
2022-12-12T10:59:49.689Z,5.20
2022-12-12T11:01:04.307Z,3.10
2022-12-12T11:02:36.972Z,3.20
2022-12-12T11:03:49.154Z,3.20
2022-12-12T11:05:00.144Z,3.10
2022-12-12T11:06:08.106Z,3.00
2022-12-12T11:07:22.077Z,3.00
2022-12-12T11:08:29.798Z,3.00
2022-12-12T11:09:33.368Z,3.00
2022-12-12T11:10:39.301Z,3.10
2022-12-12T11:11:57.531Z,3.10
2022-12-12T11:13:04.268Z,4.50
2022-12-12T11:14:28.247Z,3.10
2022-12-12T11:15:38.730Z,3.10
2022-12-12T11:16:44.783Z,3.60
2022-12-12T11:17:54.469Z,3.00
2022-12-12T11:19:06.524Z,2.90
2022-12-12T11:20:17.353Z,2.80
2022-12-12T11:21:22.283Z,2.50
2022-12-12T11:22:30.116Z,2.80
2022-12-12T11:23:36.502Z,2.90
2022-12-12T11:24:46.556Z,0.50
2022-12-12T11:25:58.075Z,2.70
2022-12-12T11:27:04.671Z,5.10
2022-12-12T11:28:24.337Z,2.90
2022-12-12T11:29:37.856Z,5.70
2022-12-12T11:30:45.521Z,2.90
2022-12-12T11:31:49.146Z,2.80
2022-12-12T11:32:56.521Z,2.90
2022-12-12T11:34:06.376Z,2.90
2022-12-12T11:35:25.120Z,2.90
2022-12-12T11:36:35.796Z,2.80
2022-12-12T11:37:50.863Z,2.90
2022-12-12T11:38:57.596Z,2.90
2022-12-12T11:40:01.629Z,2.90
2022-12-12T11:41:08.419Z,2.90
2022-12-12T11:42:22.858Z,2.90
2022-12-12T11:43:28.342Z,2.90
2022-12-12T11:44:36.075Z,3.00
2022-12-12T11:45:40.172Z,2.80
2022-12-12T11:46:42.736Z,2.80
2022-12-12T11:47:48.182Z,2.80
2022-12-12T11:49:02.988Z,3.20
2022-12-12T11:50:22.586Z,2.70
2022-12-12T11:51:35.113Z,2.70
2022-12-12T11:52:39.407Z,2.70
2022-12-12T11:53:46.555Z,5.60
2022-12-12T11:54:50.277Z,2.70
2022-12-12T11:56:10.302Z,2.80
2022-12-12T11:57:24.984Z,2.90
2022-12-12T11:58:34.230Z,2.80
2022-12-12T12:00:03.279Z,2.80
2022-12-12T12:01:18.674Z,0.10
2022-12-12T12:02:59.956Z,2.80
2022-12-12T12:04:20.226Z,2.70
2022-12-12T12:05:37.349Z,2.70
2022-12-12T12:06:57.590Z,2.80
2022-12-12T12:08:19.204Z,1.90
2022-12-12T12:09:34.049Z,4.10
2022-12-12T12:10:53.220Z,2.70
2022-12-12T12:12:07.714Z,2.70
2022-12-12T12:13:29.906Z,2.70
2022-12-12T12:15:04.269Z,2.80
2022-12-12T12:16:19.486Z,3.00
2022-12-12T12:17:33.878Z,3.10
2022-12-12T12:18:53.733Z,3.10
2022-12-12T12:20:09.922Z,3.50
2022-12-12T12:21:28.931Z,3.20
2022-12-12T12:22:48.236Z,3.20
2022-12-12T12:24:09.951Z,3.20
2022-12-12T12:25:40.627Z,3.30
2022-12-12T12:27:01.375Z,3.30
2022-12-12T12:28:42.528Z,3.20
2022-12-12T12:30:12.834Z,3.00
2022-12-12T12:31:27.857Z,3.00
2022-12-12T12:32:49.111Z,2.90
2022-12-12T12:34:10.758Z,3.00
2022-12-12T12:35:33.636Z,3.10
2022-12-12T12:36:56.580Z,2.70
2022-12-12T12:38:14.895Z,3.50
2022-12-12T12:39:40.985Z,3.80
2022-12-12T12:41:03.202Z,4.00
2022-12-12T12:42:23.064Z,4.40
2022-12-12T12:43:46.888Z,4.60
2022-12-12T12:44:56.922Z,4.70
2022-12-12T12:46:12.798Z,4.90
2022-12-12T12:47:28.727Z,5.00
2022-12-12T12:48:38.556Z,5.00
2022-12-12T12:49:49.956Z,5.00
2022-12-12T12:51:02.546Z,5.00
2022-12-12T12:52:14.501Z,4.90
2022-12-12T12:53:29.695Z,4.90
2022-12-12T12:54:40.269Z,4.80
2022-12-12T12:55:52.274Z,4.70
2022-12-12T12:57:01.818Z,4.80
2022-12-12T12:58:16.116Z,5.00
2022-12-12T12:59:28.164Z,5.00
2022-12-12T13:00:32.971Z,5.10
2022-12-12T13:01:45.015Z,5.20
2022-12-12T13:02:56.038Z,5.10
2022-12-12T13:04:13.387Z,4.90
2022-12-12T13:05:25.309Z,4.50
2022-12-12T13:06:41.025Z,4.20
2022-12-12T13:07:53.751Z,3.90
2022-12-12T13:09:03.222Z,3.00
2022-12-12T13:10:19.094Z,4.80
2022-12-12T13:11:30.782Z,3.50
2022-12-12T13:12:39.353Z,3.40
2022-12-12T13:13:49.214Z,3.30
2022-12-12T13:15:00.256Z,3.30
2022-12-12T13:16:09.851Z,3.20
2022-12-12T13:17:20.548Z,3.10
2022-12-12T13:18:25.440Z,3.10
2022-12-12T13:19:40.859Z,3.00
2022-12-12T13:20:48.874Z,3.00
2022-12-12T13:22:01.750Z,3.00
2022-12-12T13:23:47.626Z,3.00
2022-12-12T13:25:00.690Z,3.00
2022-12-12T13:26:14.356Z,3.00
2022-12-12T13:27:26.459Z,3.00
2022-12-12T13:28:37.822Z,2.90
2022-12-12T13:29:49.853Z,2.90
2022-12-12T13:31:18.975Z,2.90
2022-12-12T13:32:43.747Z,2.80
2022-12-12T13:33:53.506Z,2.80
2022-12-12T13:35:06.508Z,2.80
2022-12-12T13:36:16.170Z,2.80
2022-12-12T13:37:23.733Z,2.80
2022-12-12T13:38:32.686Z,2.80
2022-12-12T13:39:39.835Z,2.80
2022-12-12T13:40:44.665Z,2.80
2022-12-12T13:42:03.715Z,2.80
2022-12-12T13:43:27.264Z,2.80
2022-12-12T13:44:40.570Z,2.80
2022-12-12T13:45:45.937Z,2.60
2022-12-12T13:46:49.354Z,2.50
2022-12-12T13:48:02.843Z,3.90
2022-12-12T13:49:31.185Z,2.50
2022-12-12T13:50:34.669Z,2.50
2022-12-12T13:51:40.796Z,2.50
2022-12-12T13:52:44.641Z,2.50
2022-12-12T13:53:47.216Z,2.50
2022-12-12T13:54:55.729Z,2.50
2022-12-12T13:56:33.201Z,2.60
2022-12-12T13:57:36.857Z,2.60
2022-12-12T13:58:39.687Z,2.60
2022-12-12T14:00:49.134Z,2.60
2022-12-12T14:02:02.497Z,2.60
2022-12-12T14:03:22.503Z,3.10
2022-12-12T14:04:30.038Z,1.40
2022-12-12T14:05:36.105Z,2.50
2022-12-12T14:06:39.825Z,2.90
2022-12-12T14:07:49.792Z,2.50
2022-12-12T14:08:54.909Z,1.70
2022-12-12T14:10:15.340Z,2.40
2022-12-12T14:11:32.052Z,2.40
2022-12-12T14:12:37.622Z,2.40
2022-12-12T14:13:47.451Z,2.40
2022-12-12T14:14:57.236Z,2.50
2022-12-12T14:16:05.421Z,2.30
2022-12-12T14:17:23.867Z,2.30
2022-12-12T14:18:32.823Z,2.30
2022-12-12T14:19:39.507Z,2.40
2022-12-12T14:20:44.476Z,2.30
2022-12-12T14:21:49.494Z,2.30
2022-12-12T14:23:25.018Z,2.30
2022-12-12T14:24:59.607Z,2.30
2022-12-12T14:26:42.002Z,2.10
2022-12-12T14:28:17.441Z,2.10
2022-12-12T14:29:26.653Z,2.10
2022-12-12T14:30:46.516Z,2.10
2022-12-12T14:32:02.826Z,2.10
2022-12-12T14:33:33.818Z,2.10
2022-12-12T14:34:50.992Z,2.10
2022-12-12T14:36:04.703Z,2.10
2022-12-12T14:37:27.190Z,2.20
2022-12-12T14:38:44.966Z,2.30
2022-12-12T14:40:03.953Z,2.30
2022-12-12T14:41:16.598Z,2.30
2022-12-12T14:43:19.628Z,2.20
2022-12-12T14:44:35.005Z,2.20
2022-12-12T14:45:29.463Z,2.30
2022-12-12T14:46:33.546Z,2.30
2022-12-12T14:47:37.323Z,2.30
2022-12-12T14:48:40.776Z,2.30
2022-12-12T14:49:43.516Z,2.30
2022-12-12T14:50:52.405Z,2.30
2022-12-12T14:51:59.582Z,3.10
2022-12-12T14:53:04.261Z,2.30
2022-12-12T14:54:17.918Z,2.30
2022-12-12T14:55:20.903Z,2.30
2022-12-12T14:56:31.187Z,2.40
2022-12-12T14:57:37.612Z,2.40
2022-12-12T14:58:44.713Z,2.40
2022-12-12T14:59:48.826Z,2.40
2022-12-12T15:00:55.011Z,2.40
2022-12-12T15:02:03.311Z,2.40
2022-12-12T15:03:08.105Z,2.10
2022-12-12T15:04:16.867Z,2.40
2022-12-12T15:05:19.360Z,2.40
2022-12-12T15:06:32.373Z,2.40
2022-12-12T15:07:38.434Z,2.30
2022-12-12T15:08:42.233Z,2.20
2022-12-12T15:09:50.646Z,2.10
2022-12-12T15:11:01.556Z,2.20
2022-12-12T15:12:22.795Z,2.20
2022-12-12T15:13:26.269Z,2.20
2022-12-12T15:14:40.095Z,2.30
2022-12-12T15:15:44.597Z,2.40
2022-12-12T15:16:53.718Z,2.40
2022-12-12T15:18:01.919Z,2.40
2022-12-12T15:19:05.709Z,1.70
2022-12-12T15:20:18.651Z,2.40
2022-12-12T15:21:21.280Z,3.50
2022-12-12T15:22:27.805Z,2.50
2022-12-12T15:23:31.448Z,2.50
2022-12-12T15:24:40.698Z,2.50
2022-12-12T15:25:54.187Z,2.50